Aviation Digital Data Service (ADDS)

Output produced by METARs form (2041 UTC 21 July 2017)
found at http://www.aviationweather.gov/adds/metars/
 
TAF AMD KDAA 211921Z 2119/2223 18006KT 9999 SCT040 QNH2992INS 
     TEMPO 2119/2122 9000 -TSRA BKN040CB 
     BECMG 2123/2124 20006KT 9999 BKN040 BKN200 QNH2996INS 
     BECMG 2216/2217 21012KT 9000 -SHRA BKN045 OVC200 QNH2996INS 
     TEMPO 2218/2222 28015G25KT 8000 -TSRA BKN045CB OVC060 TX36/2119Z TN25/2208Z
       
KDAB 211927Z 2119/2218 10007KT P6SM VCTS SCT030CB BKN250 
     TEMPO 2119/2121 3SM TSRA BKN030CB 
     FM212300 VRB04KT P6SM VCSH SCT030 BKN080 BKN200 
     FM220100 VRB02KT P6SM FEW035 SCT100 BKN200 
     FM221400 22004KT P6SM SCT030
       
KDAG 211737Z 2118/2218 32007KT P6SM SKC 
     FM220100 25015KT P6SM SKC 
     FM221600 31009KT P6SM SKC
       
KDAL 211720Z 2118/2218 18010KT P6SM FEW050 SCT090
       
KDAN 211830Z 2119/2218 25005KT P6SM VCSH BKN060 
     FM212100 24006KT P6SM VCTS BKN050CB 
     FM220100 VRB03KT P6SM SCT090 
     FM221400 23004KT P6SM SCT070
       
KDAY 211739Z 2118/2218 23012KT P6SM SCT050 BKN200 
     FM220300 19005KT P6SM SCT050 SCT100 
     FM220900 20007KT P6SM VCSH BKN040 OVC100 
     TEMPO 2210/2214 5SM -SHRA BR BKN020 OVC040 
     FM221500 23014G22KT P6SM BKN020 OVC050
       
KDBQ 211827Z 2118/2218 01008KT P6SM VCTS SCT030CB BKN070 
     TEMPO 2118/2120 BKN025CB 
     FM212100 13011KT P6SM VCTS BKN035CB 
     TEMPO 2122/2201 VRB25G35KT 2SM TSRA BKN025CB 
     FM220300 15011KT P6SM OVC100 
     PROB30 2203/2206 2SM TSRA BKN030CB 
     FM220900 18009KT 5SM BR BKN050 
     FM221200 21008KT P6SM BKN150
       
KDCA 211727Z 2118/2218 15005KT P6SM BKN050 
     FM212100 27006KT P6SM BKN060 
     FM221100 VRB04KT P6SM BKN130 
     FM221700 19005KT P6SM BKN060
       
KDDC 211720Z 2118/2218 21015G23KT P6SM SKC 
     FM220200 18010KT P6SM SKC
       
KDEC 211742Z 2118/2218 24008KT P6SM VCTS SCT040CB BKN250 
     FM220000 19006KT P6SM SCT250 
     FM221400 23008KT P6SM SCT250
       
KDEN 211725Z 2118/2224 05008KT P6SM FEW090 SCT120 SCT220 
     FM212200 32013G22KT P6SM VCTS SCT080CB BKN120 
     TEMPO 2122/2202 VRB20G35KT -TSRA BKN080CB 
     FM220300 23011KT P6SM VCSH FEW080 BKN120 BKN200 
     FM220600 20006KT P6SM FEW060 SCT090 BKN120 
     FM221500 33005KT P6SM FEW120 SCT200 
     FM222000 08008KT P6SM VCTS SCT090CB BKN120
       
KDET 211723Z 2118/2218 12005KT P6SM SCT150 BKN250 
     FM220900 12004KT P6SM -SHRA BKN045 OVC100 
     PROB30 2209/2213 2SM +TSRA BKN022CB OVC040 
     FM221400 17008KT 6SM BR SCT022 BKN040 OVC150
       
KDFW 211720Z 2118/2224 18010KT P6SM FEW050 SCT090
       
KDHN 211737Z 2118/2218 19007KT P6SM SCT050 
     FM212000 19005KT P6SM VCTS BKN050CB 
     FM220100 VRB03KT P6SM SCT200 
     FM221500 24004KT P6SM SCT040
       
KDHT 211720Z 2118/2218 20014G22KT P6SM SCT080 
     FM220200 19010KT P6SM FEW250
       
KDIK 211726Z 2118/2218 31011KT P6SM FEW090 FEW250 
     FM212100 32016G23KT P6SM SKC 
     FM220200 31006KT P6SM SKC 
     FM220600 28006KT P6SM SKC 
     FM221300 28010KT P6SM FEW130 FEW250 
     FM221600 30016G24KT P6SM FEW120 FEW250
       
TAF KDLF 211800Z 2118/2224 15010G15KT 9999 FEW200 QNH2993INS 
     BECMG 2202/2203 16009KT 9999 FEW080 SCT200 510203 QNH2996INS 
     BECMG 2214/2215 14010G15KT 9999 FEW050 FEW200 QNH2999INS TX38/2121Z TN23/2212Z
       
KDLH 211730Z 2118/2218 11009KT P6SM BKN110 
     FM212100 09008KT P6SM VCSH BKN060 
     FM220800 08005KT P6SM BKN030 
     FM221000 07004KT 4SM BR VCTS BKN008CB 
     FM221200 07004KT 2SM BR VCTS BKN003CB 
     FM221700 09005KT 6SM BR BKN020
       
KDLS 211720Z 2118/2218 31008KT P6SM SKC 
     FM212200 33012G20KT P6SM FEW250 
     FM220400 30010KT P6SM SCT250
       
TAF KDMA 211404Z 2114/2220 VRB06KT 9999 SCT030 QNH2998INS 
     BECMG 2120/2121 32009KT 9000 -SHRA VCTS BKN050CB QNH2993INS 
     TEMPO 2122/2203 VRB15G25KT VCTS OVC050CB 
     BECMG 2202/2203 VRB06KT 9999 NSW BKN050 OVC090 QNH2995INS 
     BECMG 2211/2212 VRB06KT 9999 BKN030 QNH3000INS 
     BECMG 2217/2218 VRB06KT 9000 -SHRA BKN040 QNH3001INS TX31/2122Z TN23/2212Z
       
KDMN 211724Z 2118/2218 20007KT P6SM VCTS SCT050CB BKN120 
     TEMPO 2122/2202 VRB20G35KT TS BKN050CB 
     FM220400 21006KT P6SM FEW050 OVC120 
     FM221200 22004KT P6SM VCSH SCT050 OVC100
       
KDNL 212013Z 2120/2218 VRB05KT P6SM SCT050 
     FM220100 17003KT P6SM SCT100 
     FM221500 23006KT P6SM SCT035
       
TAF KDOV 211600Z 2116/2222 29009KT 9999 FEW055 QNH2989INS WND 20006KT AFT 2121 
     BECMG 2213/2214 VRB06KT 9000 -SHRA BKN030 QNH2980INS 
     TEMPO 2218/2222 26012G18KT 8000 -TSRA OVC025CB TX34/2118Z TN25/2211Z
       
KDPA 211747Z 2118/2218 15007KT P6SM SCT060 BKN150 
     FM220200 17006KT 6SM -SHRA VCTS SCT040 BKN100CB 
     TEMPO 2202/2203 31020G30KT 1SM TSRA BKN040CB 
     FM220500 19008KT 5SM -SHRA VCTS BKN040 BKN080CB 
     TEMPO 2205/2209 2SM TSRA SCT015 BKN025CB 
     FM221200 24014KT P6SM SCT035 BKN050
       
KDRO 211740Z 2118/2218 VRB05KT P6SM SCT080 SCT150 
     FM212000 22006KT P6SM VCTS SCT080CB BKN120 
     FM220000 33010KT P6SM VCTS BKN080CB BKN110 
     FM220600 VRB04KT P6SM SCT080 BKN120 
     FM221200 VRB03KT P6SM SCT120 SCT200
       
KDRT 211720Z 2118/2218 13011KT P6SM FEW250
       
KDSM 211747Z 2118/2218 17012KT P6SM SCT150 
     FM220200 22012KT P6SM BKN100 
     FM220600 25010KT P6SM SCT210
       
KDTW 212037Z 2121/2224 14006KT P6SM SCT150 BKN250 
     FM220900 12004KT P6SM -SHRA BKN045 OVC100 
     PROB30 2209/2213 2SM +TSRA BKN022CB OVC040 
     FM221400 17008KT 6SM BR SCT022 BKN040 OVC150 
     FM221900 21008KT P6SM BKN045
       
KDUG 211959Z 2120/2218 31007KT P6SM VCTS SCT040CB BKN070 
     TEMPO 2120/2122 VRB20G30KT 2SM TSRA SCT025 BKN035CB 
     FM220000 33008KT P6SM VCSH SCT050 BKN090 
     FM220500 15006KT P6SM SCT070 BKN120 
     FM221000 VRB04KT P6SM SCT120 BKN250
       
KDUJ 211725Z 2118/2218 28005KT P6SM SCT045 
     FM220600 00000KT 3SM BR SCT250 
     FM220800 00000KT 1SM BR BKN008 
     FM221300 15003KT 6SM BR SCT045 
     FM221700 20006KT P6SM -SHRA VCTS OVC040CB
       
KDVL 211738Z 2118/2218 13010KT P6SM SCT070 
     FM211900 12009KT P6SM VCTS SCT080CB 
     FM212300 09009KT P6SM VCTS BKN070CB 
     FM220300 07005KT P6SM SCT060 
     FM220500 33004KT P6SM FEW060 
     FM220700 25004KT P6SM FEW070 
     FM221500 30015G23KT P6SM SCT050 
     FM221700 30018KT P6SM FEW150
       
TAF AMD KDYS 212018Z 2120/2222 17012G18KT 9999 FEW065 QNH2995INS 
     BECMG 2201/2202 16009KT 9999 SCT070 510203 QNH2996INS 
     BECMG 2214/2215 19010G15KT 9999 FEW050 QNH2999INS TX38/2121Z TN25/2212Z LAST NO AMDS AFT 2123 NEXT 2408